createdAt,value
2023-05-22T00:01:26.690Z,15.48
2023-05-22T00:03:00.847Z,15.47
2023-05-22T00:04:34.423Z,15.45
2023-05-22T00:06:10.203Z,15.41
2023-05-22T00:07:43.778Z,15.36
2023-05-22T00:09:16.531Z,15.30
2023-05-22T00:10:50.070Z,15.25
2023-05-22T00:12:23.319Z,15.19
2023-05-22T00:13:55.516Z,15.14
2023-05-22T00:15:30.344Z,15.16
2023-05-22T00:17:03.861Z,15.13
2023-05-22T00:18:37.039Z,15.13
2023-05-22T00:20:11.215Z,15.13
2023-05-22T00:21:45.223Z,15.09
2023-05-22T00:23:18.675Z,15.06
2023-05-22T00:24:51.837Z,15.07
2023-05-22T00:26:25.401Z,15.04
2023-05-22T00:27:58.677Z,15.00
2023-05-22T00:29:31.907Z,15.00
2023-05-22T00:31:06.564Z,14.97
2023-05-22T00:32:40.539Z,14.88
2023-05-22T00:34:13.913Z,14.85
2023-05-22T00:35:46.565Z,14.81
2023-05-22T00:37:20.843Z,14.82
2023-05-22T00:38:54.090Z,14.83
2023-05-22T00:40:27.542Z,14.87
2023-05-22T00:42:01.073Z,14.88
2023-05-22T00:43:34.866Z,14.87
2023-05-22T00:45:11.014Z,14.87
2023-05-22T00:46:45.716Z,14.77
2023-05-22T00:48:18.356Z,14.74
2023-05-22T00:49:51.549Z,14.70
2023-05-22T00:51:26.048Z,14.69
2023-05-22T00:52:59.351Z,14.69
2023-05-22T00:54:34.044Z,14.67
2023-05-22T00:56:08.225Z,14.65
2023-05-22T00:57:42.724Z,14.65
2023-05-22T00:59:17.064Z,14.63
2023-05-22T01:00:50.808Z,14.57
2023-05-22T01:02:24.700Z,14.44
2023-05-22T01:03:59.949Z,14.38
2023-05-22T01:05:33.488Z,14.37
2023-05-22T01:07:07.374Z,14.27
2023-05-22T01:08:41.374Z,14.15
2023-05-22T01:10:14.609Z,14.09
2023-05-22T01:11:56.578Z,14.04
2023-05-22T01:13:36.003Z,14.03
2023-05-22T01:15:17.513Z,14.05
2023-05-22T01:17:13.051Z,14.10
2023-05-22T01:18:56.406Z,14.06
2023-05-22T01:20:33.439Z,14.07
2023-05-22T01:22:21.703Z,14.02
2023-05-22T01:24:27.849Z,13.96
2023-05-22T01:26:33.181Z,13.96
2023-05-22T01:28:20.923Z,13.97
2023-05-22T01:30:14.344Z,13.97
2023-05-22T01:31:51.529Z,13.93
2023-05-22T01:33:26.838Z,13.91
2023-05-22T01:35:02.333Z,13.88
2023-05-22T01:36:38.425Z,13.88
2023-05-22T01:38:12.678Z,13.86
2023-05-22T01:39:47.209Z,13.88
2023-05-22T01:41:22.503Z,13.91
2023-05-22T01:42:55.978Z,13.93
2023-05-22T01:44:29.830Z,13.88
2023-05-22T01:46:03.370Z,13.91
2023-05-22T01:47:38.164Z,13.89
2023-05-22T01:49:11.477Z,13.84
2023-05-22T01:50:45.780Z,13.77
2023-05-22T01:52:26.704Z,13.77
2023-05-22T01:54:06.207Z,13.72
2023-05-22T01:55:45.459Z,13.68
2023-05-22T01:57:23.162Z,13.60
2023-05-22T01:59:02.852Z,13.54
2023-05-22T02:00:38.497Z,13.48
2023-05-22T02:02:15.026Z,13.42
2023-05-22T02:03:56.671Z,13.39
2023-05-22T02:05:32.285Z,13.33
2023-05-22T02:07:06.389Z,13.39
2023-05-22T02:08:41.738Z,13.40
2023-05-22T02:10:16.888Z,13.43
2023-05-22T02:11:50.624Z,13.45
2023-05-22T02:13:24.810Z,13.45
2023-05-22T02:14:57.698Z,13.43
2023-05-22T02:16:31.453Z,13.41
2023-05-22T02:18:10.915Z,13.41
2023-05-22T02:19:45.745Z,13.39
2023-05-22T02:21:19.019Z,13.38
2023-05-22T02:22:52.569Z,13.37
2023-05-22T02:24:25.985Z,13.35
2023-05-22T02:25:59.785Z,13.31
2023-05-22T02:27:32.092Z,13.24
2023-05-22T02:29:05.502Z,13.20
2023-05-22T02:30:39.085Z,13.12
2023-05-22T02:32:12.477Z,13.14
2023-05-22T02:33:46.037Z,13.09
2023-05-22T02:35:20.073Z,12.99
2023-05-22T02:36:53.224Z,12.94
2023-05-22T02:38:26.012Z,12.92
2023-05-22T02:39:59.506Z,12.85
2023-05-22T02:41:33.894Z,12.81
2023-05-22T02:43:07.060Z,12.81
2023-05-22T02:44:40.526Z,12.85
2023-05-22T02:46:13.897Z,12.88
2023-05-22T02:47:47.397Z,12.92
2023-05-22T02:49:20.704Z,12.93
2023-05-22T02:50:55.335Z,12.92
2023-05-22T02:52:28.684Z,12.90
2023-05-22T02:54:02.175Z,12.94
2023-05-22T02:55:35.352Z,12.94
2023-05-22T02:57:08.820Z,12.89
2023-05-22T02:58:42.196Z,12.85
2023-05-22T03:00:16.156Z,12.84
2023-05-22T03:01:48.628Z,12.83
2023-05-22T03:03:24.274Z,12.85
2023-05-22T03:04:59.280Z,12.89
2023-05-22T03:06:35.493Z,12.89
2023-05-22T03:08:08.828Z,12.89
2023-05-22T03:09:42.095Z,12.92
2023-05-22T03:11:15.414Z,12.92
2023-05-22T03:12:48.894Z,12.92
2023-05-22T03:14:21.139Z,12.93
2023-05-22T03:15:54.496Z,12.89
2023-05-22T03:17:28.616Z,12.84
2023-05-22T03:19:10.604Z,12.87
2023-05-22T03:20:44.045Z,12.86
2023-05-22T03:22:19.539Z,12.86
2023-05-22T03:23:51.899Z,12.74
2023-05-22T03:25:25.336Z,12.78
2023-05-22T03:26:58.503Z,12.81
2023-05-22T03:28:41.281Z,12.74
2023-05-22T03:30:15.693Z,12.80
2023-05-22T03:31:59.008Z,12.82
2023-05-22T03:33:32.349Z,12.84
2023-05-22T03:35:07.240Z,12.83
2023-05-22T03:36:41.432Z,12.79
2023-05-22T03:38:16.127Z,12.79
2023-05-22T03:39:49.381Z,12.82
2023-05-22T03:41:31.638Z,12.78
2023-05-22T03:43:05.266Z,12.83
2023-05-22T03:44:38.500Z,12.87
2023-05-22T03:46:12.563Z,12.90
2023-05-22T03:47:45.900Z,12.94
2023-05-22T03:49:19.346Z,12.99
2023-05-22T03:50:52.746Z,12.98
2023-05-22T03:52:26.507Z,12.92
2023-05-22T03:54:01.126Z,12.97
2023-05-22T03:55:33.432Z,13.02
2023-05-22T03:57:07.094Z,13.03
2023-05-22T03:58:40.242Z,13.05
2023-05-22T04:00:17.058Z,13.15
2023-05-22T04:01:51.124Z,13.19
2023-05-22T04:03:24.537Z,13.26
2023-05-22T04:04:57.962Z,13.27
2023-05-22T04:06:33.077Z,13.27
2023-05-22T04:08:06.702Z,13.30
2023-05-22T04:09:41.911Z,13.36
2023-05-22T04:11:15.883Z,13.39
2023-05-22T04:12:49.097Z,13.42
2023-05-22T04:14:21.374Z,13.40
2023-05-22T04:15:54.712Z,13.42
2023-05-22T04:17:32.488Z,13.37
2023-05-22T04:19:05.921Z,13.46
2023-05-22T04:20:39.561Z,13.55
2023-05-22T04:22:12.066Z,13.65
2023-05-22T04:23:45.661Z,13.84
2023-05-22T04:25:20.312Z,14.09
2023-05-22T04:26:53.736Z,14.26
2023-05-22T04:28:27.266Z,14.41
2023-05-22T04:30:00.551Z,14.60
2023-05-22T04:31:33.759Z,14.78
2023-05-22T04:33:08.694Z,14.88
2023-05-22T04:34:42.312Z,15.06
2023-05-22T04:36:15.723Z,15.25
2023-05-22T04:37:48.961Z,15.38
2023-05-22T04:39:22.728Z,15.52
2023-05-22T04:40:58.265Z,15.57
2023-05-22T04:42:31.793Z,15.71
2023-05-22T04:44:05.310Z,15.72
2023-05-22T04:45:39.654Z,15.78
2023-05-22T04:47:14.579Z,15.77
2023-05-22T04:48:48.059Z,15.81
2023-05-22T04:50:23.966Z,15.85
2023-05-22T04:51:57.994Z,15.89
2023-05-22T04:53:33.438Z,15.84
2023-05-22T04:55:08.589Z,15.81
2023-05-22T04:56:43.201Z,15.78
2023-05-22T04:58:16.911Z,15.86
2023-05-22T04:59:50.438Z,15.90
2023-05-22T05:01:25.055Z,15.93
2023-05-22T05:03:00.521Z,15.86
2023-05-22T05:04:34.555Z,15.90
2023-05-22T05:06:10.220Z,15.97
2023-05-22T05:07:44.685Z,16.03
2023-05-22T05:09:17.257Z,16.12
2023-05-22T05:10:51.059Z,16.07
2023-05-22T05:12:25.684Z,16.08
2023-05-22T05:13:58.889Z,16.13
2023-05-22T05:15:32.158Z,16.23
2023-05-22T05:17:08.939Z,16.30
2023-05-22T05:18:42.310Z,16.35
2023-05-22T05:20:15.815Z,16.42
2023-05-22T05:21:49.692Z,16.54
2023-05-22T05:23:23.270Z,16.63
2023-05-22T05:24:56.833Z,16.67
2023-05-22T05:26:30.375Z,16.70
2023-05-22T05:28:11.177Z,16.79
2023-05-22T05:29:45.446Z,16.91
2023-05-22T05:31:28.810Z,16.96
2023-05-22T05:33:40.166Z,16.99
2023-05-22T05:35:34.766Z,17.12
2023-05-22T05:37:15.257Z,17.28
2023-05-22T05:38:48.566Z,17.40
2023-05-22T05:40:21.778Z,17.59
2023-05-22T05:41:57.930Z,17.81
2023-05-22T05:43:33.107Z,18.03
2023-05-22T05:45:12.405Z,18.18
2023-05-22T05:46:46.288Z,18.27
2023-05-22T05:48:22.098Z,18.33
2023-05-22T05:49:56.075Z,18.32
2023-05-22T05:51:29.630Z,18.37
2023-05-22T05:53:03.457Z,18.54
2023-05-22T05:54:36.860Z,18.72
2023-05-22T05:56:17.829Z,18.82
2023-05-22T05:57:52.267Z,18.65
2023-05-22T05:59:33.087Z,18.73
2023-05-22T06:01:28.181Z,19.03
2023-05-22T06:03:02.225Z,19.21
2023-05-22T06:04:50.356Z,19.60
2023-05-22T06:06:26.916Z,19.85
2023-05-22T06:08:26.814Z,20.00
2023-05-22T06:10:00.698Z,20.10
2023-05-22T06:11:54.226Z,20.47
2023-05-22T06:13:27.671Z,20.61
2023-05-22T06:15:04.148Z,20.70
2023-05-22T06:16:37.435Z,20.87
2023-05-22T06:18:11.199Z,20.83
2023-05-22T06:19:45.886Z,20.91
2023-05-22T06:21:22.191Z,21.04
2023-05-22T06:22:56.094Z,21.11
2023-05-22T06:24:29.582Z,21.01
2023-05-22T06:26:03.057Z,21.05
2023-05-22T06:27:36.499Z,21.44
2023-05-22T06:29:09.633Z,21.64
2023-05-22T06:30:45.450Z,21.49
2023-05-22T06:32:22.721Z,21.28
2023-05-22T06:33:58.385Z,21.35
2023-05-22T06:35:32.630Z,21.48
2023-05-22T06:37:06.146Z,21.38
2023-05-22T06:38:46.238Z,21.42
2023-05-22T06:40:39.651Z,21.20
2023-05-22T06:42:25.789Z,21.15
2023-05-22T06:44:28.122Z,21.53
2023-05-22T06:46:03.887Z,21.78
2023-05-22T06:47:37.183Z,22.12
2023-05-22T06:49:10.549Z,22.12
2023-05-22T06:50:56.594Z,21.78
2023-05-22T06:52:30.289Z,21.64
2023-05-22T06:54:06.890Z,21.67
2023-05-22T06:55:40.275Z,21.82
2023-05-22T06:57:29.162Z,21.77
2023-05-22T06:59:05.441Z,21.86
2023-05-22T07:01:19.266Z,22.26
2023-05-22T07:03:06.971Z,22.23
2023-05-22T07:04:49.578Z,22.15
2023-05-22T07:06:32.497Z,21.96
2023-05-22T07:08:08.940Z,22.07
2023-05-22T07:09:42.198Z,22.00
2023-05-22T07:11:15.724Z,21.71
2023-05-22T07:12:48.910Z,21.80
2023-05-22T07:14:23.047Z,21.70
2023-05-22T07:15:56.847Z,21.58
2023-05-22T07:17:32.013Z,21.48
2023-05-22T07:19:05.287Z,21.52
2023-05-22T07:20:39.457Z,21.41
2023-05-22T07:22:20.767Z,21.14
2023-05-22T07:23:54.960Z,21.26
2023-05-22T07:25:29.088Z,21.42
2023-05-22T07:27:02.524Z,21.59
2023-05-22T07:28:35.698Z,21.57
2023-05-22T07:30:15.458Z,21.41
2023-05-22T07:31:48.758Z,21.31
2023-05-22T07:33:23.833Z,21.35
2023-05-22T07:34:57.326Z,21.22
2023-05-22T07:36:31.987Z,20.86
2023-05-22T07:38:05.242Z,20.81
2023-05-22T07:39:39.751Z,20.92
2023-05-22T07:41:14.245Z,20.99
2023-05-22T07:42:47.504Z,21.11
2023-05-22T07:44:21.837Z,21.19
2023-05-22T07:45:56.101Z,21.18
2023-05-22T07:47:32.395Z,21.19
2023-05-22T07:49:07.724Z,21.18
2023-05-22T07:50:44.888Z,21.21
2023-05-22T07:52:18.888Z,21.29
2023-05-22T07:53:52.101Z,21.40
2023-05-22T07:55:25.351Z,21.51
2023-05-22T07:57:03.350Z,21.71
2023-05-22T07:58:41.401Z,21.68
2023-05-22T08:00:17.127Z,21.82
2023-05-22T08:01:50.424Z,21.97
2023-05-22T08:03:24.399Z,22.16
2023-05-22T08:04:59.825Z,22.25
2023-05-22T08:06:35.155Z,22.32
2023-05-22T08:08:10.461Z,22.28
2023-05-22T08:09:46.172Z,22.38
2023-05-22T08:11:19.711Z,22.49
2023-05-22T08:12:52.955Z,22.68
2023-05-22T08:14:26.181Z,22.71
2023-05-22T08:16:00.340Z,22.80
2023-05-22T08:17:35.191Z,22.87
2023-05-22T08:19:09.060Z,22.99
2023-05-22T08:20:43.850Z,22.99
2023-05-22T08:22:17.029Z,23.16
2023-05-22T08:23:50.862Z,23.20
2023-05-22T08:25:24.148Z,23.12
2023-05-22T08:26:58.296Z,23.19
2023-05-22T08:28:31.457Z,23.34
2023-05-22T08:30:05.973Z,23.25
2023-05-22T08:31:41.790Z,23.22
2023-05-22T08:33:15.067Z,23.32
2023-05-22T08:34:48.268Z,23.39
2023-05-22T08:36:24.780Z,23.30
2023-05-22T08:37:57.943Z,23.46
2023-05-22T08:39:31.450Z,23.49
2023-05-22T08:41:06.176Z,23.53
2023-05-22T08:42:39.994Z,23.66
2023-05-22T08:44:13.941Z,23.73
2023-05-22T08:45:48.784Z,23.83
2023-05-22T08:47:23.606Z,24.03
2023-05-22T08:49:00.024Z,24.20
2023-05-22T08:50:33.541Z,24.32
2023-05-22T08:52:14.082Z,24.50
2023-05-22T08:53:47.541Z,24.61
2023-05-22T08:55:21.362Z,24.64
2023-05-22T08:56:57.091Z,24.91
2023-05-22T08:58:31.484Z,25.01
2023-05-22T09:00:05.659Z,25.34
2023-05-22T09:01:39.659Z,25.69
2023-05-22T09:03:14.830Z,25.94
2023-05-22T09:04:48.271Z,26.12
2023-05-22T09:06:21.503Z,26.18
2023-05-22T09:08:00.447Z,26.28
2023-05-22T09:09:38.875Z,26.43
2023-05-22T09:11:13.309Z,26.64
2023-05-22T09:13:04.014Z,26.58
2023-05-22T09:14:40.572Z,26.54
2023-05-22T09:16:14.672Z,26.82
2023-05-22T09:17:47.923Z,27.11
2023-05-22T09:19:21.857Z,27.34
2023-05-22T09:20:55.284Z,27.50
2023-05-22T09:22:36.654Z,27.40
2023-05-22T09:24:11.593Z,27.34
2023-05-22T09:25:46.733Z,27.18
2023-05-22T09:27:25.125Z,27.07
2023-05-22T09:29:00.858Z,26.91
2023-05-22T09:30:36.232Z,26.89
2023-05-22T09:32:15.014Z,27.06
2023-05-22T09:33:49.443Z,27.39
2023-05-22T09:35:22.923Z,27.64
2023-05-22T09:37:03.198Z,27.70
2023-05-22T09:38:36.517Z,27.89
2023-05-22T09:40:14.176Z,27.82
2023-05-22T09:41:47.362Z,27.77
2023-05-22T09:43:20.614Z,27.86
2023-05-22T09:44:54.148Z,28.31
2023-05-22T09:46:27.541Z,28.36
2023-05-22T09:48:00.848Z,28.64
2023-05-22T09:49:38.150Z,28.67
2023-05-22T09:51:12.585Z,28.76
2023-05-22T09:52:47.324Z,28.76
2023-05-22T09:54:22.069Z,28.50
2023-05-22T09:55:57.870Z,28.49
2023-05-22T09:57:33.692Z,28.15
2023-05-22T09:59:10.111Z,28.02
2023-05-22T10:00:44.519Z,28.20
2023-05-22T10:02:19.379Z,27.98
2023-05-22T10:03:55.762Z,27.53
2023-05-22T10:05:32.179Z,26.57
2023-05-22T10:07:06.096Z,26.06
2023-05-22T10:08:45.699Z,25.85
2023-05-22T10:10:21.750Z,25.70
2023-05-22T10:11:59.827Z,25.59
2023-05-22T10:13:36.699Z,25.41
2023-05-22T10:15:11.411Z,25.39
2023-05-22T10:16:45.733Z,25.47
2023-05-22T10:18:19.081Z,25.54
2023-05-22T10:19:54.949Z,25.37
2023-05-22T10:21:32.147Z,25.12
2023-05-22T10:23:05.784Z,24.92
2023-05-22T10:24:41.219Z,25.15
2023-05-22T10:26:14.692Z,25.20
2023-05-22T10:27:50.336Z,24.95
2023-05-22T10:29:30.828Z,24.90
2023-05-22T10:31:10.589Z,25.03
2023-05-22T10:33:18.596Z,25.11
2023-05-22T10:35:01.074Z,25.29
2023-05-22T10:36:53.176Z,25.21
2023-05-22T10:38:47.118Z,25.02
2023-05-22T10:40:29.294Z,24.99
2023-05-22T10:42:03.012Z,25.03
2023-05-22T10:43:39.963Z,24.85
2023-05-22T10:45:13.377Z,24.77
2023-05-22T10:46:51.142Z,24.85
2023-05-22T10:48:24.373Z,25.04
2023-05-22T10:50:06.304Z,25.16
2023-05-22T10:51:39.771Z,25.26
2023-05-22T10:53:24.812Z,25.27
2023-05-22T10:55:01.358Z,25.36
2023-05-22T10:56:35.548Z,25.51
2023-05-22T10:58:14.518Z,25.56
2023-05-22T10:59:50.511Z,25.51
2023-05-22T11:01:27.207Z,25.54
2023-05-22T11:03:17.931Z,25.60
2023-05-22T11:04:52.164Z,25.72
2023-05-22T11:06:35.725Z,25.88
2023-05-22T11:08:38.711Z,26.10
2023-05-22T11:10:12.557Z,26.20
2023-05-22T11:11:46.267Z,26.14
2023-05-22T11:13:19.577Z,26.11
2023-05-22T11:14:56.413Z,26.01
2023-05-22T11:16:33.540Z,25.89
2023-05-22T11:18:07.043Z,25.77
2023-05-22T11:19:42.050Z,25.81
2023-05-22T11:21:15.732Z,25.84
2023-05-22T11:22:52.695Z,25.77
2023-05-22T11:24:25.928Z,25.77
2023-05-22T11:26:19.991Z,25.62
2023-05-22T11:27:56.064Z,25.63
2023-05-22T11:29:30.628Z,25.56
2023-05-22T11:31:05.562Z,25.43
2023-05-22T11:32:39.893Z,25.43
2023-05-22T11:34:14.084Z,25.46
2023-05-22T11:35:49.707Z,25.61
2023-05-22T11:37:23.128Z,25.64
2023-05-22T11:38:59.814Z,25.90
2023-05-22T11:40:33.287Z,26.16
2023-05-22T11:42:07.327Z,26.26
2023-05-22T11:43:43.367Z,26.25
2023-05-22T11:45:17.944Z,26.24
2023-05-22T11:46:52.929Z,26.31
2023-05-22T11:48:26.530Z,26.16
2023-05-22T11:50:00.521Z,25.89
2023-05-22T11:51:33.737Z,25.79
2023-05-22T11:53:07.423Z,25.83
2023-05-22T11:54:40.674Z,25.89
2023-05-22T11:56:13.920Z,25.81
2023-05-22T11:57:48.189Z,25.72
2023-05-22T11:59:23.398Z,25.68
2023-05-22T12:01:00.161Z,25.63
2023-05-22T12:02:34.912Z,25.54
2023-05-22T12:04:08.169Z,25.64
2023-05-22T12:05:41.765Z,25.76
2023-05-22T12:07:15.474Z,25.71
2023-05-22T12:08:48.883Z,25.54
2023-05-22T12:10:22.162Z,25.45
2023-05-22T12:11:56.429Z,25.40
2023-05-22T12:13:31.714Z,25.43
2023-05-22T12:15:07.586Z,25.25
2023-05-22T12:16:40.867Z,25.18
2023-05-22T12:18:15.779Z,25.12
2023-05-22T12:19:49.095Z,25.12
2023-05-22T12:21:23.300Z,25.01
2023-05-22T12:22:59.048Z,24.97
2023-05-22T12:24:39.549Z,25.07
2023-05-22T12:26:13.235Z,25.04
2023-05-22T12:27:47.570Z,25.08
2023-05-22T12:29:20.916Z,25.21
2023-05-22T12:30:55.793Z,25.24
2023-05-22T12:32:31.322Z,25.31
2023-05-22T12:34:08.876Z,25.37
2023-05-22T12:35:42.892Z,25.38
2023-05-22T12:37:20.178Z,25.19
2023-05-22T12:38:59.527Z,25.35
2023-05-22T12:40:33.323Z,25.47
2023-05-22T12:42:08.729Z,25.62
2023-05-22T12:43:42.367Z,25.64
2023-05-22T12:45:17.951Z,25.70
2023-05-22T12:46:53.575Z,25.84
2023-05-22T12:48:26.923Z,25.90
2023-05-22T12:50:01.691Z,25.88
2023-05-22T12:51:35.844Z,25.88
2023-05-22T12:53:09.176Z,25.88
2023-05-22T12:54:42.584Z,25.94
2023-05-22T12:56:15.896Z,26.13
2023-05-22T12:57:49.528Z,26.31
2023-05-22T12:59:23.108Z,26.38
2023-05-22T13:00:56.262Z,26.37
2023-05-22T13:02:29.646Z,26.38
2023-05-22T13:04:03.015Z,26.43
2023-05-22T13:05:38.220Z,26.55
2023-05-22T13:07:11.564Z,26.43
2023-05-22T13:08:44.790Z,26.37
2023-05-22T13:10:19.384Z,26.31
2023-05-22T13:11:53.090Z,26.25
2023-05-22T13:13:26.379Z,26.13
2023-05-22T13:14:59.717Z,26.06
2023-05-22T13:16:33.324Z,25.97
2023-05-22T13:18:06.921Z,25.91
2023-05-22T13:19:40.070Z,25.91
2023-05-22T13:21:14.834Z,25.95
2023-05-22T13:22:48.139Z,26.01
2023-05-22T13:24:21.785Z,26.13
2023-05-22T13:25:54.973Z,26.13
2023-05-22T13:27:28.403Z,26.14
2023-05-22T13:29:01.780Z,26.30
2023-05-22T13:30:35.263Z,26.41
2023-05-22T13:32:08.494Z,26.44
2023-05-22T13:33:41.788Z,26.42
2023-05-22T13:35:15.102Z,26.50
2023-05-22T13:36:49.926Z,26.48
2023-05-22T13:38:23.134Z,26.26
2023-05-22T13:39:56.514Z,26.00
2023-05-22T13:41:30.025Z,25.98
2023-05-22T13:43:03.539Z,25.96
2023-05-22T13:44:36.676Z,25.96
2023-05-22T13:46:09.928Z,25.84
2023-05-22T17:06:09.078Z,17.44
2023-05-22T17:07:42.693Z,17.47
2023-05-22T17:09:16.442Z,17.52
2023-05-22T17:10:49.679Z,17.54
2023-05-22T17:12:23.389Z,17.59
2023-05-22T17:13:56.663Z,17.62
2023-05-22T17:15:30.199Z,17.63
2023-05-22T17:17:03.803Z,17.64
2023-05-22T17:18:37.926Z,17.67
2023-05-22T17:20:11.946Z,17.67
2023-05-22T17:21:46.930Z,17.64
2023-05-22T17:23:20.139Z,17.60
2023-05-22T17:24:53.555Z,17.56
2023-05-22T17:26:27.495Z,17.54
2023-05-22T17:28:00.835Z,17.49
2023-05-22T17:29:34.039Z,17.47
2023-05-22T17:31:07.848Z,17.43
2023-05-22T17:32:41.116Z,17.35
2023-05-22T17:34:14.557Z,17.33
2023-05-22T17:35:47.935Z,17.34
2023-05-22T17:37:22.803Z,17.39
2023-05-22T17:38:56.015Z,17.36
2023-05-22T17:40:40.390Z,17.44
2023-05-22T17:42:17.973Z,17.42
2023-05-22T17:43:51.836Z,17.49
2023-05-22T17:45:25.099Z,17.53
2023-05-22T17:46:58.470Z,17.54
2023-05-22T17:48:31.659Z,17.51
2023-05-22T17:50:05.415Z,17.48
2023-05-22T17:51:38.692Z,17.47
2023-05-22T17:53:15.945Z,17.46
2023-05-22T17:54:49.993Z,17.46
2023-05-22T17:56:24.102Z,17.49
2023-05-22T17:57:57.361Z,17.49
2023-05-22T17:59:30.838Z,17.47
2023-05-22T18:01:04.224Z,17.37
2023-05-22T18:02:38.286Z,17.27
2023-05-22T18:04:12.592Z,17.30
2023-05-22T18:05:46.047Z,17.28
2023-05-22T18:07:20.061Z,17.20
2023-05-22T18:08:55.093Z,17.19
2023-05-22T18:10:28.440Z,17.14
2023-05-22T18:12:03.838Z,17.11
2023-05-22T18:13:37.074Z,17.11
2023-05-22T18:15:12.504Z,17.07
2023-05-22T18:16:45.761Z,17.06
2023-05-22T18:18:19.175Z,17.03
2023-05-22T18:19:52.333Z,17.02
2023-05-22T18:21:26.430Z,16.99
2023-05-22T18:22:59.779Z,16.92
2023-05-22T18:24:36.590Z,16.88
2023-05-22T18:26:10.163Z,16.88
2023-05-22T18:27:44.014Z,16.85
2023-05-22T18:29:18.812Z,16.82
2023-05-22T18:30:52.632Z,16.80
2023-05-22T18:32:25.997Z,16.77
2023-05-22T18:33:59.611Z,16.80
2023-05-22T18:35:32.879Z,16.80
2023-05-22T18:37:07.866Z,16.77
2023-05-22T18:38:41.169Z,16.71
2023-05-22T18:40:16.155Z,16.67
2023-05-22T18:41:49.248Z,16.61
2023-05-22T18:43:27.784Z,16.54
2023-05-22T18:45:00.966Z,16.50
2023-05-22T18:46:34.738Z,16.45
2023-05-22T18:48:07.935Z,16.40
2023-05-22T18:49:41.410Z,16.39
2023-05-22T18:51:16.578Z,16.37
2023-05-22T18:52:50.288Z,16.38
2023-05-22T18:54:23.422Z,16.38
2023-05-22T18:55:58.098Z,16.38
2023-05-22T18:57:31.247Z,16.37
2023-05-22T18:59:05.163Z,16.32
2023-05-22T19:00:39.344Z,16.25
2023-05-22T19:02:12.929Z,16.21
2023-05-22T19:03:46.410Z,16.17
2023-05-22T19:05:20.024Z,16.18
2023-05-22T19:06:53.715Z,16.20
2023-05-22T19:08:26.977Z,16.18
2023-05-22T19:10:00.139Z,16.12
2023-05-22T19:11:35.105Z,16.11
2023-05-22T19:13:08.570Z,16.05
2023-05-22T19:14:41.883Z,16.04
2023-05-22T19:16:15.493Z,16.05
2023-05-22T19:17:49.007Z,16.04
2023-05-22T19:19:22.215Z,16.02
2023-05-22T19:20:55.625Z,16.00
2023-05-22T19:22:28.851Z,15.91
2023-05-22T19:24:02.940Z,15.85
2023-05-22T19:25:36.257Z,15.89
2023-05-22T19:27:11.030Z,15.91
2023-05-22T19:28:44.325Z,15.91
2023-05-22T19:30:19.111Z,15.89
2023-05-22T19:31:52.241Z,15.92
2023-05-22T19:33:26.278Z,15.91
2023-05-22T19:34:59.413Z,15.93
2023-05-22T19:36:32.991Z,15.93
2023-05-22T19:38:06.354Z,15.93
2023-05-22T19:39:39.735Z,16.00
2023-05-22T19:41:13.048Z,16.01
2023-05-22T19:42:47.836Z,16.06
2023-05-22T19:44:21.228Z,16.07
2023-05-22T19:45:55.671Z,16.04
2023-05-22T19:47:28.905Z,16.04
2023-05-22T19:49:02.783Z,16.04
2023-05-22T19:50:36.567Z,16.03
2023-05-22T19:52:09.847Z,15.96
2023-05-22T19:53:44.460Z,15.91
2023-05-22T19:55:17.988Z,15.88
2023-05-22T19:56:51.113Z,15.83
2023-05-22T19:58:25.753Z,15.77
2023-05-22T19:59:58.855Z,15.75
2023-05-22T20:01:32.559Z,15.74
2023-05-22T20:03:05.989Z,15.71
2023-05-22T20:04:43.074Z,15.69
2023-05-22T20:06:16.304Z,15.63
2023-05-22T20:07:50.057Z,15.59
2023-05-22T20:09:23.180Z,15.66
2023-05-22T20:10:56.548Z,15.66
2023-05-22T20:12:29.662Z,15.66
2023-05-22T20:14:05.411Z,15.63
2023-05-22T20:15:38.712Z,15.61
2023-05-22T20:17:12.115Z,15.59
2023-05-22T20:18:45.421Z,15.59
2023-05-22T20:20:19.034Z,15.60
2023-05-22T20:21:52.519Z,15.60
2023-05-22T20:23:25.925Z,15.59
2023-05-22T20:24:59.262Z,15.54
2023-05-22T20:26:32.974Z,15.49
2023-05-22T20:28:06.196Z,15.48
2023-05-22T20:29:41.010Z,15.44
2023-05-22T20:31:14.348Z,15.45
2023-05-22T20:32:48.095Z,15.46
2023-05-22T20:34:21.700Z,15.47
2023-05-22T20:35:54.967Z,15.45
2023-05-22T20:37:29.677Z,15.42
2023-05-22T20:39:03.384Z,15.45
2023-05-22T20:40:36.926Z,15.46
2023-05-22T20:42:11.699Z,15.48
2023-05-22T20:43:44.839Z,15.49
2023-05-22T20:45:19.690Z,15.50
2023-05-22T20:46:53.369Z,15.50
2023-05-22T20:48:26.726Z,15.50
2023-05-22T20:49:59.842Z,15.47
2023-05-22T20:51:33.724Z,15.45
2023-05-22T20:53:08.543Z,15.43
2023-05-22T20:54:42.173Z,15.45
2023-05-22T20:56:15.469Z,15.41
2023-05-22T20:57:48.967Z,15.31
2023-05-22T20:59:22.656Z,15.25
2023-05-22T21:00:57.832Z,15.24
2023-05-22T21:02:31.168Z,15.18
2023-05-22T21:04:04.913Z,15.18
2023-05-22T21:05:38.299Z,15.10
2023-05-22T21:07:11.882Z,14.97
2023-05-22T21:08:45.083Z,14.95
2023-05-22T21:10:18.725Z,14.90
2023-05-22T21:11:51.859Z,14.87
2023-05-22T21:13:25.256Z,14.78
2023-05-22T21:14:58.497Z,14.71
2023-05-22T21:16:33.616Z,14.67
2023-05-22T21:18:07.546Z,14.60
2023-05-22T21:19:40.910Z,14.59
2023-05-22T21:21:15.680Z,14.59
2023-05-22T21:22:49.416Z,14.56
2023-05-22T21:24:22.616Z,14.52
2023-05-22T21:25:56.382Z,14.51
2023-05-22T21:27:29.763Z,14.51
2023-05-22T21:29:02.662Z,14.51
2023-05-22T21:30:36.113Z,14.50
2023-05-22T21:32:10.805Z,14.49
2023-05-22T21:33:43.946Z,14.49
2023-05-22T21:35:17.459Z,14.51
2023-05-22T21:36:50.864Z,14.48
2023-05-22T21:38:24.173Z,14.46
2023-05-22T21:39:57.339Z,14.48
2023-05-22T21:41:31.066Z,14.49
2023-05-22T21:43:04.767Z,14.48
2023-05-22T21:44:38.053Z,14.47
2023-05-22T21:46:11.821Z,14.46
2023-05-22T21:47:46.989Z,14.44
2023-05-22T21:49:20.181Z,14.42
2023-05-22T21:50:53.482Z,14.38
2023-05-22T21:52:27.906Z,14.32
2023-05-22T21:54:01.658Z,14.25
2023-05-22T21:55:36.053Z,14.19
2023-05-22T21:57:09.306Z,14.17
2023-05-22T21:58:42.753Z,14.09
2023-05-22T22:00:17.393Z,14.07
2023-05-22T22:01:50.709Z,14.12
2023-05-22T22:03:25.462Z,14.11
2023-05-22T22:04:58.634Z,14.11
2023-05-22T22:06:32.453Z,14.09
2023-05-22T22:08:06.408Z,14.07
2023-05-22T22:09:39.710Z,14.07
2023-05-22T22:11:12.831Z,14.06
2023-05-22T22:12:46.198Z,14.03
2023-05-22T22:14:19.319Z,14.03
2023-05-22T22:15:53.621Z,13.99
2023-05-22T22:17:26.796Z,13.98
2023-05-22T22:19:01.424Z,13.96
2023-05-22T22:20:44.071Z,13.97
2023-05-22T22:22:18.484Z,13.99
2023-05-22T22:23:51.696Z,13.99
2023-05-22T22:25:24.467Z,13.98
2023-05-22T22:26:58.378Z,13.97
2023-05-22T22:28:31.881Z,13.92
2023-05-22T22:30:05.666Z,13.87
2023-05-22T22:31:38.745Z,13.82
2023-05-22T22:33:12.971Z,13.77
2023-05-22T22:34:48.764Z,13.80
2023-05-22T22:36:22.949Z,13.77
2023-05-22T22:37:58.636Z,13.75
2023-05-22T22:39:31.762Z,13.72
2023-05-22T22:41:08.733Z,13.69
2023-05-22T22:42:41.880Z,13.68
2023-05-22T22:44:15.278Z,13.62
2023-05-22T22:45:48.511Z,13.59
2023-05-22T22:47:22.186Z,13.59
2023-05-22T22:48:55.641Z,13.60
2023-05-22T22:50:30.418Z,13.62
2023-05-22T22:52:04.036Z,13.64
2023-05-22T22:53:37.876Z,13.62
2023-05-22T22:55:11.336Z,13.56
2023-05-22T22:56:45.030Z,13.51
2023-05-22T22:58:19.186Z,13.49
2023-05-22T22:59:52.634Z,13.50
2023-05-22T23:01:25.868Z,13.45
2023-05-22T23:02:59.368Z,13.46
2023-05-22T23:04:32.646Z,13.46
2023-05-22T23:06:07.727Z,13.50
2023-05-22T23:07:40.882Z,13.49
2023-05-22T23:09:14.825Z,13.48
2023-05-22T23:10:47.950Z,13.49
2023-05-22T23:12:20.297Z,13.49
2023-05-22T23:13:54.748Z,13.50
2023-05-22T23:15:27.393Z,13.50
2023-05-22T23:17:00.618Z,13.49
2023-05-22T23:18:33.849Z,13.51
2023-05-22T23:20:08.987Z,13.51
2023-05-22T23:21:43.617Z,13.48
2023-05-22T23:23:16.765Z,13.42
2023-05-22T23:24:50.113Z,13.43
2023-05-22T23:26:23.265Z,13.42
2023-05-22T23:27:56.829Z,13.42
2023-05-22T23:29:28.995Z,13.39
2023-05-22T23:31:02.519Z,13.34
2023-05-22T23:32:34.737Z,13.29
2023-05-22T23:34:08.019Z,13.28
2023-05-22T23:35:41.371Z,13.16
2023-05-22T23:37:15.327Z,13.07
2023-05-22T23:38:48.725Z,12.98
2023-05-22T23:40:22.136Z,12.95
2023-05-22T23:41:54.871Z,12.95
2023-05-22T23:43:28.218Z,13.01
2023-05-22T23:45:01.780Z,13.05